• Join FlightAware (Why Join?)
  • Login
  • US Flag 
09:38PM EST


 

Airport Tracker/Info


-or-


 

Live Flight TrackerFlight Track Log ✈ N3558D ✈ 11-Oct-2013 ✈ KORL - KFXE

Flight Track Log - Related Links

Times and Time Zones

All times are in EDT time to prevent confusion due to time zone crossing. See the N3558D flight status page for this flight to view local times or setup timezone preferences in your user account.

Time Position Orientation Groundspeed Altitude Reporting Facility
EDT Latitude Longitude Course Direction KTS MPH feet Rate Location/Type
06:23PM 28.5667 -81.3333 41° Northeast 88 101 1,400  Level Orlando TRACON
06:24PM 28.5833 -81.3000 60° Northeast 133 153 1,500 300 Climbing Orlando TRACON
06:25PM 28.5667 -81.2667 120° Southeast 111 128 2,000 540 Climbing Orlando TRACON
06:26PM 28.5833 -81.2333 60° Northeast 102 117 2,600 600 Climbing Orlando TRACON
06:27PM 28.5667 -81.2000 120° Southeast 96 110 3,200 360 Climbing Orlando TRACON
06:28PM 28.5667 -81.1667 90° East 99 114 3,400 360 Climbing Orlando TRACON
06:29PM 28.5667 -81.1333 90° East 103 119 3,900 540 Climbing Orlando TRACON
06:30PM 28.5500 -81.1167 139° Southeast 100 115 4,500 540 Climbing Orlando TRACON
06:31PM 28.5500 -81.0833 90° East 92 106 5,000 480 Climbing Orlando TRACON
06:32PM 28.5500 -81.0500 90° East 94 108 5,500 420 Climbing Orlando TRACON
06:33PM 28.5500 -81.0333 90° East 97 112 5,900 420 Climbing Orlando TRACON
06:34PM 28.5333 -81.0167 139° Southeast 90 104 6,400 420 Climbing Orlando TRACON
06:35PM 28.5000 -81.0000 156° South 90 104 6,800 420 Climbing Orlando TRACON
06:36PM 28.4833 -81.0000 180° South 86 99 7,300 300 Climbing Orlando TRACON
06:37PM 28.4500 -80.9833 156° South 108 124 7,500  Climbing Orlando TRACON
06:38PM 28.4167 -80.9833 180° South 124 143 7,400 -60 Descending Orlando TRACON
06:39PM 28.3833 -80.9667 156° South 125 144 7,400  Level Orlando TRACON
06:40PM 28.3500 -80.9667 180° South 132 152 7,400  Level Orlando TRACON
06:41PM 28.3167 -80.9500 156° South 133 153 7,400  Level Orlando TRACON
06:42PM 28.2833 -80.9333 156° South 134 154 7,400  Level Orlando TRACON
06:43PM 28.2681 -80.9253 155° Southeast 130 150 7,400  Level Miami Center
06:44PM 28.2353 -80.9006 146° Southeast 135 155 7,400  Level Miami Center
06:45PM 28.2044 -80.8853 156° South 134 154 7,400  Level Miami Center
06:46PM 28.1714 -80.8769 167° South 129 148 7,400  Level Miami Center
06:47PM 28.1322 -80.8614 161° South 124 143 7,400  Level Miami Center
06:48PM 28.0992 -80.8439 155° Southeast 129 148 7,400  Level Miami Center
06:49PM 28.0703 -80.8311 159° South 129 148 7,400  Level Miami Center
06:50PM 28.0308 -80.8250 172° South 122 140 7,400  Level Miami Center
06:51PM 27.9958 -80.8144 165° South 122 140 7,400  Level Miami Center
06:52PM 27.9669 -80.8014 158° South 127 146 7,400  Level Miami Center
06:53PM 27.9317 -80.7933 169° South 127 146 7,400  Level Miami Center
06:54PM 27.8925 -80.7731 155° Southeast 127 146 7,400  Level Miami Center
06:55PM 27.8597 -80.7556 155° Southeast 132 152 7,400  Level Miami Center
06:56PM 27.8267 -80.7428 161° South 132 152 7,400  Level Miami Center
06:57PM 27.7956 -80.7322 163° South 125 144 7,400  Level Miami Center
06:58PM 27.7603 -80.7239 168° South 125 144 7,400  Level Miami Center
06:59PM 27.7208 -80.7156 169° South 130 150 7,400  Level Miami Center
07:00PM 27.6836 -80.7025 163° South 130 150 7,400  Level Miami Center
07:01PM 27.6503 -80.6992 175° South 136 157 7,400  Level Miami Center
07:02PM 27.6150 -80.6886 165° South 136 157 7,400  Level Miami Center
07:03PM 27.5758 -80.6733 161° South 136 157 7,400  Level Miami Center
07:04PM 27.5408 -80.6556 156° South 136 157 7,400  Level Miami Center
07:05PM 27.5081 -80.6358 152° Southeast 141 162 7,400  Level Miami Center
07:06PM 27.4769 -80.6186 154° Southeast 141 162 7,400 -60 Level Miami Center
07:07PM 27.4417 -80.6103 168° South 136 157 7,300  Descending Miami Center
07:08PM 27.4025 -80.5972 164° South 136 157 7,400  Climbing Miami Center
07:09PM 27.3653 -80.5844 163° South 136 157 7,300  Descending Miami Center
07:10PM 27.3303 -80.5647 153° Southeast 136 157 7,400  Climbing Miami Center
07:11PM 27.3036 -80.5428 144° Southeast 136 157 7,400  Level Miami Center
07:12PM 27.2750 -80.5161 140° Southeast 141 162 7,400  Level Miami Center
07:13PM 27.2447 -80.4825 135° Southeast 141 162 7,500  Climbing Miami Center
07:14PM 27.2075 -80.4672 160° South 133 153 7,400 -60 Descending Miami Center
07:15PM 27.1700 -80.4567 166° South 133 153 7,400  Level Miami Center
07:16PM 27.1389 -80.4464 164° South 133 153 7,400 -180 Level Miami Center
07:18PM 27.0788 -80.4287 162° South  Level Estimated
07:25PM 26.8362 -80.3947 161° South  Level FlightAware Approximate
07:26PM 26.8035 -80.3824 161° South  Level FlightAware Approximate
07:27PM 26.7708 -80.3701 161° South  Level FlightAware Approximate
07:28PM 26.7380 -80.3579 161° South  Level FlightAware Approximate
07:29PM 26.7053 -80.3456 161° South  Level FlightAware Approximate
07:29PM 26.6447 -80.3314 160° South 144 166 5,300  Level Miami Center
07:30PM 26.6726 -80.3334 162° South  Level FlightAware Approximate
07:30PM 26.6053 -80.3233 170° South 138 159 4,900  Level Miami Center
07:31PM 26.6399 -80.3212 162° South  Level FlightAware Approximate
07:31PM 26.5681 -80.3106 163° South 139 160 4,500  Level Miami Center
07:32PM 26.6072 -80.3089 162° South  Level FlightAware Approximate
07:32PM 26.5286 -80.2956 161° South 145 167 4,000  Level Miami Center
07:33PM 26.5740 -80.3000 180° South  Level FlightAware Approximate
07:33PM 26.4892 -80.2872 169° South 135 155 3,600  Level Miami Center
07:34PM 26.5401 -80.2961 160° South  Level FlightAware Approximate
07:34PM 26.4519 -80.2769 166° South 135 155 3,400  Level Miami Center
07:35PM 26.4144 -80.2667 166° South 139 160 2,900 -300 Descending Miami Center
07:36PM 26.3750 -80.2586 170° South 137 158 2,800 -240 Descending Miami Center
07:37PM 26.3397 -80.2461 162° South 129 148 2,500 -360 Descending Miami Center
07:38PM 26.3067 -80.2289 155° Southeast 134 154 2,100 -480 Descending Miami Center
07:39PM 26.2692 -80.2300 182° South 135 155 1,600 -420 Descending Miami Center
07:40PM 26.2400 -80.2317 183° South 119 137 1,300 -300 Descending Miami Center
07:41PM 26.2064 -80.2353 186° South 106 122 1,100 -300 Descending Miami Center
07:42PM 26.1900 -80.2233 147° Southeast 70 81 700 -420 Descending Miami Center
07:43PM 26.1947 -80.2025 76° East 69 79 300 -420 Descending Miami Center
07:45PM 26.1833 -80.1667 90° East  Level FlightAware Approximate
07:52PM 26.1973 -80.1707 90° East  Level Estimated